Terminal Aerodrome Forecast
Issued by NWS

Home | Current Version | Previous Version | Text Only | Print | Product List | Glossary On
Versions: 1 2 3 4 5 6 7 8 9 10 11 12 13 14 15
000
FTUS45 KABQ 040539
TAFTCC
TAF
KTCC 040539Z 0406/0506 36011KT P6SM BKN100
      TEMPO 0406/0409 03011G21KT
     FM040900 VRB06KT P6SM FEW120
     FM042100 14008KT P6SM FEW120=

USA.gov is the U.S. government's official web portal to all federal, state and local government web resources and services.